Time;durP1;ratioP1;P1;durP2;ratioP2;P2;SDS_P1;SDS_P2;PMS_P1;PMS_P2;Temp;Humidity;BMP_temperature;BMP_pressure;BME280_temperature;BME280_humidity;BME280_pressure;Samples;Min_cycle;Max_cycle;Signal;HPM_P1;HPM_P2
2023/07/11 00:04:26;;;;;;;8.98;5.00;;;;;;;-147.65;100.00;57646.63;10308669;28;20049;-77
2023/07/11 00:09:26;;;;;;;7.70;4.47;;;;;;;-147.65;100.00;57646.63;10320064;28;20085;-78
2023/07/11 00:14:27;;;;;;;8.35;4.43;;;;;;;-147.65;100.00;57646.63;10334542;28;20038;-78
2023/07/11 00:19:27;;;;;;;7.05;3.97;;;;;;;-147.65;100.00;57646.63;10301764;28;20074;-77
2023/07/11 00:24:28;;;;;;;7.90;4.10;;;;;;;-147.65;100.00;57646.63;10291116;28;20062;-77
2023/07/11 00:29:28;;;;;;;7.43;3.58;;;;;;;-147.65;100.00;57646.63;10325289;28;20054;-77
2023/07/11 00:34:29;;;;;;;6.18;3.90;;;;;;;-147.65;100.00;57646.63;10302367;28;20042;-78
2023/07/11 00:39:31;;;;;;;12.77;4.50;;;;;;;-147.65;100.00;57646.63;10327324;28;20038;-78
2023/07/11 00:44:50;;;;;;;7.75;3.85;;;;;;;-147.65;100.00;57646.63;10351963;28;20080;-77
2023/07/11 00:49:53;;;;;;;8.93;3.95;;;;;;;-147.65;100.00;57646.63;10359645;28;20050;-77
2023/07/11 00:54:56;;;;;;;9.68;3.75;;;;;;;-147.65;100.00;57646.63;10311605;28;20041;-78
2023/07/11 00:59:56;;;;;;;7.80;4.10;;;;;;;-147.65;100.00;57646.63;10347185;28;20041;-78
2023/07/11 01:04:57;;;;;;;5.32;3.83;;;;;;;-147.65;100.00;57646.63;10366116;28;20042;-78
2023/07/11 01:09:57;;;;;;;8.25;3.83;;;;;;;-147.65;100.00;57646.63;10341190;28;20508;-78
2023/07/11 01:14:58;;;;;;;10.88;4.35;;;;;;;-147.65;100.00;57646.63;10326663;28;20169;-78
2023/07/11 01:19:59;;;;;;;7.82;3.40;;;;;;;-147.65;100.00;57646.63;10329375;28;20428;-78
2023/07/11 01:25:11;;;;;;;9.32;4.72;;;;;;;-147.65;100.00;57646.63;10343566;28;20073;-78
2023/07/11 01:30:14;;;;;;;10.18;3.97;;;;;;;-147.65;100.00;57646.63;10349941;28;20446;-77
2023/07/11 01:35:15;;;;;;;6.80;4.60;;;;;;;-147.65;100.00;57646.63;10335583;28;20035;-78
2023/07/11 01:40:15;;;;;;;9.68;5.30;;;;;;;-147.65;100.00;57646.63;10318359;28;20479;-78
2023/07/11 01:45:16;;;;;;;12.20;5.10;;;;;;;-147.65;100.00;57646.63;10314906;28;20121;-77
2023/07/11 01:50:16;;;;;;;12.15;5.75;;;;;;;-147.65;100.00;57646.63;10275273;28;20139;-78
2023/07/11 01:55:17;;;;;;;12.75;4.78;;;;;;;-147.65;100.00;57646.63;10337589;28;20047;-78
2023/07/11 02:00:18;;;;;;;9.43;4.07;;;;;;;-147.65;100.00;57646.63;10316228;28;20371;-78
2023/07/11 02:05:19;;;;;;;6.32;3.70;;;;;;;-147.65;100.00;57646.63;10329988;28;20449;-78
2023/07/11 02:10:20;;;;;;;6.63;3.58;;;;;;;-147.65;100.00;57646.63;10290710;28;20125;-77
2023/07/11 02:15:20;;;;;;;7.47;4.10;;;;;;;-147.65;100.00;57646.63;10302053;28;20043;-78
2023/07/11 02:20:21;;;;;;;18.40;6.95;;;;;;;-147.65;100.00;57646.63;10351913;28;20068;-78
2023/07/11 02:25:21;;;;;;;6.15;3.58;;;;;;;-147.65;100.00;57646.63;10364077;28;20046;-78
2023/07/11 02:30:22;;;;;;;9.55;4.57;;;;;;;-147.65;100.00;57646.63;10362633;28;20119;-77
2023/07/11 02:35:24;;;;;;;9.38;4.57;;;;;;;-147.65;100.00;57646.63;10361583;28;20129;-77
2023/07/11 02:40:24;;;;;;;12.20;4.47;;;;;;;-147.65;100.00;57646.63;10361892;28;20088;-78
2023/07/11 02:45:25;;;;;;;8.00;5.18;;;;;;;-147.65;100.00;57646.63;10346594;28;20037;-77
2023/07/11 02:50:25;;;;;;;7.13;4.30;;;;;;;-147.65;100.00;57646.63;10318988;28;20030;-77
2023/07/11 02:55:26;;;;;;;9.95;4.63;;;;;;;-147.65;100.00;57646.63;10333606;28;20075;-77
2023/07/11 03:00:28;;;;;;;19.75;7.30;;;;;;;-147.65;100.00;57646.63;10322502;28;20101;-77
2023/07/11 03:05:28;;;;;;;9.27;4.97;;;;;;;-147.65;100.00;57646.63;10319546;28;20506;-77
2023/07/11 03:10:29;;;;;;;12.95;6.55;;;;;;;-147.65;100.00;57646.63;10320686;28;20046;-78
2023/07/11 03:15:29;;;;;;;11.00;5.57;;;;;;;-147.65;100.00;57646.63;10324720;28;20212;-77
2023/07/11 03:20:30;;;;;;;9.07;4.65;;;;;;;-147.65;100.00;57646.63;10327306;28;20046;-77
2023/07/11 03:25:30;;;;;;;13.20;4.65;;;;;;;-147.65;100.00;57646.63;10321178;28;20149;-77
2023/07/11 03:30:32;;;;;;;6.82;4.55;;;;;;;-147.65;100.00;57646.63;10341710;28;20121;-77
2023/07/11 03:35:33;;;;;;;14.70;6.73;;;;;;;-147.65;100.00;57646.63;10342587;28;20053;-77
2023/07/11 03:40:33;;;;;;;7.35;5.00;;;;;;;-147.65;100.00;57646.63;10280170;28;20042;-77
2023/07/11 03:45:34;;;;;;;7.55;4.90;;;;;;;-147.65;100.00;57646.63;10324768;28;20606;-77
2023/07/11 03:50:34;;;;;;;11.00;5.82;;;;;;;-147.65;100.00;57646.63;10310626;28;20038;-77
2023/07/11 03:55:35;;;;;;;8.68;4.50;;;;;;;-147.65;100.00;57646.63;10346462;28;20522;-76
2023/07/11 04:00:35;;;;;;;8.88;4.35;;;;;;;-147.65;100.00;57646.63;10359323;28;20044;-77
2023/07/11 04:05:36;;;;;;;15.27;8.82;;;;;;;-147.65;100.00;57646.63;10345737;28;20124;-77
2023/07/11 04:10:36;;;;;;;11.63;5.25;;;;;;;-147.65;100.00;57646.63;10333694;28;20039;-77
2023/07/11 04:15:37;;;;;;;14.98;4.28;;;;;;;-147.65;100.00;57646.63;10346525;28;20049;-77
2023/07/11 04:20:37;;;;;;;8.38;4.18;;;;;;;-147.65;100.00;57646.63;10318346;28;20451;-77
2023/07/11 04:25:38;;;;;;;8.80;3.97;;;;;;;-147.65;100.00;57646.63;10333437;28;20046;-76
2023/07/11 04:30:38;;;;;;;27.45;6.25;;;;;;;-147.65;100.00;57646.63;10302340;28;20034;-77
2023/07/11 04:35:43;;;;;;;7.68;4.13;;;;;;;-147.65;100.00;57646.63;10319913;28;20479;-77
2023/07/11 04:40:45;;;;;;;8.93;3.88;;;;;;;-147.65;100.00;57646.63;10318960;28;20049;-77
2023/07/11 04:45:45;;;;;;;6.10;4.43;;;;;;;-147.65;100.00;57646.63;10347990;28;20084;-77
2023/07/11 04:50:46;;;;;;;10.75;4.00;;;;;;;-147.65;100.00;57646.63;10322097;28;20042;-75
2023/07/11 04:55:47;;;;;;;5.45;3.20;;;;;;;-147.65;100.00;57646.63;10332848;28;20100;-75
2023/07/11 05:00:47;;;;;;;10.43;4.53;;;;;;;-147.65;100.00;57646.63;10317030;28;20125;-75
2023/07/11 05:05:48;;;;;;;9.32;4.53;;;;;;;-147.65;100.00;57646.63;10328819;28;20460;-75
2023/07/11 05:10:59;;;;;;;5.28;3.03;;;;;;;-147.65;100.00;57646.63;10320393;28;20670;-77
2023/07/11 05:16:00;;;;;;;7.95;4.22;;;;;;;-147.65;100.00;57646.63;10352864;28;20103;-78
2023/07/11 05:21:01;;;;;;;6.82;2.75;;;;;;;-147.65;100.00;57646.63;10326835;28;20138;-77
2023/07/11 05:26:02;;;;;;;4.72;2.75;;;;;;;-147.65;100.00;57646.63;10334902;28;20044;-78
2023/07/11 05:31:04;;;;;;;6.28;3.00;;;;;;;-147.65;100.00;57646.63;10339386;28;20049;-77
2023/07/11 05:36:21;;;;;;;4.40;2.08;;;;;;;-147.65;100.00;57646.63;10320713;28;20502;-77
2023/07/11 05:41:21;;;;;;;5.25;2.25;;;;;;;-147.65;100.00;57646.63;10297335;28;20050;-78
2023/07/11 05:46:23;;;;;;;3.90;2.20;;;;;;;-147.65;100.00;57646.63;10339734;28;20081;-77
2023/07/11 05:51:23;;;;;;;6.63;3.88;;;;;;;-147.65;100.00;57646.63;10353491;28;20038;-77
2023/07/11 05:56:24;;;;;;;5.43;2.73;;;;;;;-147.65;100.00;57646.63;10319153;28;20034;-77
2023/07/11 06:01:26;;;;;;;5.30;2.60;;;;;;;-147.65;100.00;57646.63;10324651;28;20038;-76
2023/07/11 06:06:27;;;;;;;4.22;2.53;;;;;;;-147.65;100.00;57646.63;10335517;28;20409;-77
2023/07/11 06:11:27;;;;;;;7.07;3.30;;;;;;;-147.65;100.00;57646.63;10334856;28;20062;-76
2023/07/11 06:16:28;;;;;;;4.17;2.30;;;;;;;-147.65;100.00;57646.63;10329285;28;20379;-77
2023/07/11 06:21:28;;;;;;;7.03;2.20;;;;;;;-147.65;100.00;57646.63;10339547;28;20042;-78
2023/07/11 06:26:29;;;;;;;5.28;2.53;;;;;;;-147.65;100.00;57646.63;10361980;28;20045;-78
2023/07/11 06:31:29;;;;;;;;;;;;;;;-147.65;100.00;57646.63;10361548;28;20125;-80
2023/07/11 06:36:30;;;;;;;4.87;2.60;;;;;;;-147.65;100.00;57646.63;10343704;28;20056;-79
2023/07/11 06:41:30;;;;;;;;;;;;;;;-147.65;100.00;57646.63;10319783;28;20052;-79
2023/07/11 06:46:31;;;;;;;12.07;3.00;;;;;;;-147.65;100.00;57646.63;10316679;28;19937;-79
2023/07/11 06:51:31;;;;;;;8.23;4.40;;;;;;;-147.65;100.00;57646.63;10321580;28;20042;-80
2023/07/11 06:56:33;;;;;;;7.35;2.85;;;;;;;-147.65;100.00;57646.63;10319212;28;20394;-78
2023/07/11 07:01:33;;;;;;;8.38;2.38;;;;;;;-147.65;100.00;57646.63;10322201;28;20041;-81
2023/07/11 07:06:35;;;;;;;4.80;2.65;;;;;;;-147.65;100.00;57646.63;10347015;28;20484;-78
2023/07/11 07:11:35;;;;;;;9.27;2.95;;;;;;;-147.65;100.00;57646.63;10323458;28;20042;-80
2023/07/11 07:16:36;;;;;;;8.95;2.58;;;;;;;-147.65;100.00;57646.63;10321169;28;20496;-82
2023/07/11 07:21:37;;;;;;;13.57;2.40;;;;;;;-147.65;100.00;57646.63;10306848;28;20049;-82
2023/07/11 07:26:38;;;;;;;4.18;2.25;;;;;;;-147.65;100.00;57646.63;10332219;28;20448;-81
2023/07/11 07:31:38;;;;;;;7.32;2.85;;;;;;;-147.65;100.00;57646.63;10320791;28;20048;-84
2023/07/11 07:36:39;;;;;;;5.80;2.55;;;;;;;-147.65;100.00;57646.63;10312480;28;20483;-83
2023/07/11 07:41:43;;;;;;;8.85;3.38;;;;;;;-147.65;100.00;57646.63;10320720;28;20049;-84
2023/07/11 07:46:43;;;;;;;7.53;2.08;;;;;;;-147.65;100.00;57646.63;10297972;28;20035;-82
2023/07/11 07:51:44;;;;;;;4.53;2.10;;;;;;;-147.65;100.00;57646.63;10319016;28;20034;-83
2023/07/11 07:56:44;;;;;;;5.20;2.58;;;;;;;-147.65;100.00;57646.63;10351159;28;20057;-84
2023/07/11 08:01:45;;;;;;;5.78;3.35;;;;;;;-147.65;100.00;57646.63;10332898;28;20574;-80
2023/07/11 08:06:46;;;;;;;6.95;2.97;;;;;;;-147.65;100.00;57646.63;10316599;28;20042;-79
2023/07/11 08:11:46;;;;;;;9.32;3.00;;;;;;;-147.65;100.00;57646.63;10324141;28;20125;-79
2023/07/11 08:16:46;;;;;;;;;;;;;;;-147.65;100.00;57646.63;10329222;28;20042;-80
2023/07/11 08:21:47;;;;;;;5.80;2.23;;;;;;;-147.65;100.00;57646.63;10335934;28;19943;-78
2023/07/11 08:26:48;;;;;;;6.07;2.72;;;;;;;-147.65;100.00;57646.63;10348093;28;20038;-78
2023/07/11 08:31:48;;;;;;;6.13;3.05;;;;;;;-147.65;100.00;57646.63;10330551;28;20450;-80
2023/07/11 08:36:49;;;;;;;6.53;2.50;;;;;;;-147.65;100.00;57646.63;10262898;28;20067;-81
2023/07/11 08:41:50;;;;;;;4.28;2.05;;;;;;;-147.65;100.00;57646.63;10283923;28;20041;-80
2023/07/11 08:47:18;;;;;;;5.82;2.67;;;;;;;-147.65;100.00;57646.63;10317470;28;20048;-79
2023/07/11 08:52:19;;;;;;;9.13;2.58;;;;;;;-147.65;100.00;57646.63;10357049;28;20125;-79
2023/07/11 08:57:20;;;;;;;7.93;2.80;;;;;;;-147.65;100.00;57646.63;10378419;28;20445;-80
2023/07/11 09:02:29;;;;;;;4.80;2.05;;;;;;;-147.65;100.00;57646.63;10336663;28;20050;-79
2023/07/11 09:07:40;;;;;;;5.15;2.05;;;;;;;-147.65;100.00;57646.63;10331522;28;20050;-81
2023/07/11 09:13:13;;;;;;;7.20;2.35;;;;;;;-147.65;100.00;57646.63;10308225;28;20490;-79
2023/07/11 09:18:48;;;;;;;6.78;2.53;;;;;;;-147.65;100.00;57646.63;10309948;28;20113;-84
2023/07/11 09:24:00;;;;;;;5.32;2.83;;;;;;;-147.65;100.00;57646.63;10350886;28;20042;-83
2023/07/11 09:29:03;;;;;;;6.22;2.00;;;;;;;-147.65;100.00;57646.63;10355160;28;20113;-81
2023/07/11 09:34:09;;;;;;;7.32;2.38;;;;;;;-147.65;100.00;57646.63;10307945;28;20086;-81
2023/07/11 09:39:18;;;;;;;7.03;2.72;;;;;;;-147.65;100.00;57646.63;10323914;28;20052;-81
2023/07/11 09:44:19;;;;;;;5.85;2.17;;;;;;;-147.65;100.00;57646.63;10366455;28;20111;-81
2023/07/11 09:49:24;;;;;;;7.82;3.10;;;;;;;-147.65;100.00;57646.63;10357597;28;20100;-81
2023/07/11 09:54:26;;;;;;;6.28;2.75;;;;;;;-147.65;100.00;57646.63;10332717;28;20393;-81
2023/07/11 09:59:27;;;;;;;8.45;2.88;;;;;;;-147.65;100.00;57646.63;10340164;28;20041;-79
2023/07/11 10:04:28;;;;;;;7.78;2.72;;;;;;;-147.65;100.00;57646.63;10366242;28;20030;-80
2023/07/11 10:09:33;;;;;;;8.30;2.78;;;;;;;-147.65;100.00;57646.63;10367136;28;20044;-80
2023/07/11 10:14:35;;;;;;;10.18;3.10;;;;;;;-147.65;100.00;57646.63;10364686;28;20121;-79
2023/07/11 10:19:36;;;;;;;4.95;2.75;;;;;;;-147.65;100.00;57646.63;10325756;28;20089;-82
2023/07/11 10:24:37;;;;;;;9.95;2.95;;;;;;;-147.65;100.00;57646.63;10322552;28;20081;-81
2023/07/11 10:29:47;;;;;;;5.25;1.85;;;;;;;-147.65;100.00;57646.63;10344920;28;20034;-79
2023/07/11 10:34:53;;;;;;;7.28;2.33;;;;;;;-147.65;100.00;57646.63;10323408;28;20100;-81
2023/07/11 10:39:57;;;;;;;4.47;2.30;;;;;;;-147.65;100.00;57646.63;10326190;28;20482;-81
2023/07/11 10:45:07;;;;;;;4.78;2.53;;;;;;;-147.65;100.00;57646.63;10320834;28;20034;-80
2023/07/11 10:50:16;;;;;;;9.25;2.17;;;;;;;-147.65;100.00;57646.63;10339932;28;20061;-81
2023/07/11 10:55:19;;;;;;;6.85;2.75;;;;;;;-147.65;100.00;57646.63;10342179;28;20034;-80
2023/07/11 11:00:38;;;;;;;4.05;2.65;;;;;;;-147.65;100.00;57646.63;10304910;28;20553;-81
2023/07/11 11:05:42;;;;;;;5.00;2.30;;;;;;;-147.65;100.00;57646.63;10313884;28;20077;-88
2023/07/11 11:11:24;;;;;;;6.00;2.92;;;;;;;-147.65;100.00;57646.63;10319825;28;20042;-80
2023/07/11 11:16:32;;;;;;;10.38;3.42;;;;;;;-147.65;100.00;57646.63;10312862;28;20138;-80
2023/07/11 11:21:53;;;;;;;5.28;2.80;;;;;;;-147.65;100.00;57646.63;10321235;28;20132;-80
2023/07/11 11:27:21;;;;;;;6.93;3.38;;;;;;;-147.65;100.00;57646.63;10320765;28;20037;-80
2023/07/11 11:32:25;;;;;;;4.38;2.00;;;;;;;-147.65;100.00;57646.63;10284781;28;20051;-79
2023/07/11 11:37:38;;;;;;;5.43;2.42;;;;;;;-147.65;100.00;57646.63;10323300;28;20073;-77
2023/07/11 11:42:40;;;;;;;4.82;3.00;;;;;;;-147.65;100.00;57646.63;10294870;28;20487;-77
2023/07/11 11:47:41;;;;;;;8.88;2.47;;;;;;;-147.65;100.00;57646.63;10309767;28;20760;-79
2023/07/11 11:52:42;;;;;;;6.93;2.40;;;;;;;-147.65;100.00;57646.63;10303340;28;20105;-79
2023/07/11 11:57:42;;;;;;;15.57;2.45;;;;;;;-147.65;100.00;57646.63;10347009;28;20402;-80
2023/07/11 12:02:48;;;;;;;5.85;2.60;;;;;;;-147.65;100.00;57646.63;10359875;28;20040;-79
2023/07/11 12:08:26;;;;;;;4.18;1.63;;;;;;;-147.65;100.00;57646.63;10320902;28;20031;-81
2023/07/11 12:13:30;;;;;;;4.75;2.45;;;;;;;-147.65;100.00;57646.63;10307871;28;20054;-80
2023/07/11 12:18:38;;;;;;;8.18;1.90;;;;;;;-147.65;100.00;57646.63;10360672;28;20482;-80
2023/07/11 12:23:50;;;;;;;3.78;1.65;;;;;;;-147.65;100.00;57646.63;10330434;28;20042;-80
2023/07/11 12:28:54;;;;;;;3.53;2.30;;;;;;;-147.65;100.00;57646.63;10321483;28;20092;-80
2023/07/11 12:34:03;;;;;;;3.85;1.95;;;;;;;-147.65;100.00;57646.63;10314718;28;20395;-79
2023/07/11 12:39:26;;;;;;;4.32;2.40;;;;;;;-147.65;100.00;57646.63;10287624;28;20035;-79
2023/07/11 12:44:27;;;;;;;6.95;2.88;;;;;;;-147.65;100.00;57646.63;10333094;28;20502;-82
2023/07/11 12:49:29;;;;;;;3.22;2.00;;;;;;;-147.65;100.00;57646.63;10342262;28;20113;-80
2023/07/11 12:54:29;;;;;;;6.43;1.80;;;;;;;-147.65;100.00;57646.63;10336212;28;20045;-80
2023/07/11 12:59:30;;;;;;;6.65;1.77;;;;;;;-147.65;100.00;57646.63;10354554;28;20128;-80
2023/07/11 13:04:38;;;;;;;6.20;2.92;;;;;;;-147.65;100.00;57646.63;10312458;28;20068;-80
2023/07/11 13:09:49;;;;;;;10.90;2.20;;;;;;;-147.65;100.00;57646.63;10358292;28;20038;-80
2023/07/11 13:14:50;;;;;;;3.90;2.17;;;;;;;-147.65;100.00;57646.63;10340352;28;20042;-80
2023/07/11 13:19:58;;;;;;;8.75;2.78;;;;;;;-147.65;100.00;57646.63;10342283;28;20060;-80
2023/07/11 13:24:59;;;;;;;6.45;2.25;;;;;;;-147.65;100.00;57646.63;10314594;28;20382;-79
2023/07/11 13:29:59;;;;;;;6.45;2.38;;;;;;;-147.65;100.00;57646.63;10298035;28;20043;-80
2023/07/11 13:35:12;;;;;;;3.20;1.95;;;;;;;-147.65;100.00;57646.63;10334749;28;20177;-80
2023/07/11 13:40:38;;;;;;;6.68;2.60;;;;;;;-147.65;100.00;57646.63;10274219;28;20039;-79
2023/07/11 13:45:38;;;;;;;3.40;1.80;;;;;;;-147.65;100.00;57646.63;10319028;28;20049;-77
2023/07/11 13:50:40;;;;;;;5.30;2.97;;;;;;;-147.65;100.00;57646.63;10333139;28;20053;-78
2023/07/11 13:55:48;;;;;;;3.45;2.10;;;;;;;-147.65;100.00;57646.63;10332596;28;20105;-78
2023/07/11 14:00:50;;;;;;;5.38;2.35;;;;;;;-147.65;100.00;57646.63;10286848;28;20046;-80
2023/07/11 14:05:53;;;;;;;5.20;2.30;;;;;;;-147.65;100.00;57646.63;10330863;28;20077;-78
2023/07/11 14:10:54;;;;;;;6.03;2.50;;;;;;;-147.65;100.00;57646.63;10328182;28;20042;-78
2023/07/11 14:15:56;;;;;;;9.23;2.40;;;;;;;-147.65;100.00;57646.63;10330127;28;20034;-78
2023/07/11 14:20:58;;;;;;;6.88;2.75;;;;;;;-147.65;100.00;57646.63;10330777;28;20054;-82
2023/07/11 14:25:59;;;;;;;9.30;4.75;;;;;;;-147.65;100.00;57646.63;10302282;28;20047;-84
2023/07/11 14:31:01;;;;;;;7.15;3.03;;;;;;;-147.65;100.00;57646.63;10301502;28;20133;-77
2023/07/11 14:36:02;;;;;;;4.80;2.20;;;;;;;-147.65;100.00;57646.63;10311644;28;20087;-81
2023/07/11 14:41:03;;;;;;;5.70;2.58;;;;;;;-147.65;100.00;57646.63;10358245;28;20371;-77
2023/07/11 14:46:03;;;;;;;6.00;2.70;;;;;;;-147.65;100.00;57646.63;10307985;28;20045;-75
2023/07/11 14:51:04;;;;;;;;;;;;;;;-147.65;100.00;57646.63;10335733;28;20042;-76
2023/07/11 14:56:08;;;;;;;5.30;2.87;;;;;;;-147.65;100.00;57646.63;10310074;28;20012;-77
2023/07/11 15:01:10;;;;;;;5.18;2.53;;;;;;;-147.65;100.00;57646.63;10324003;28;20053;-77
2023/07/11 15:06:11;;;;;;;4.20;2.13;;;;;;;-147.65;100.00;57646.63;10348820;28;20073;-77
2023/07/11 15:11:34;;;;;;;8.40;2.58;;;;;;;-147.65;100.00;57646.63;10321276;28;20050;-78
2023/07/11 15:16:35;;;;;;;4.57;2.20;;;;;;;-147.65;100.00;57646.63;10354053;28;20457;-79
2023/07/11 15:21:36;;;;;;;5.78;2.40;;;;;;;-147.65;100.00;57646.63;10337639;28;20128;-77
2023/07/11 15:26:36;;;;;;;5.50;2.85;;;;;;;-147.65;100.00;57646.63;10328075;28;20480;-79
2023/07/11 15:31:37;;;;;;;16.67;4.65;;;;;;;-147.65;100.00;57646.63;10328329;28;20052;-78
2023/07/11 15:36:37;;;;;;;6.07;3.10;;;;;;;-147.65;100.00;57646.63;10332484;28;20133;-79
2023/07/11 15:41:39;;;;;;;4.03;2.17;;;;;;;-147.65;100.00;57646.63;10360912;28;20072;-80
2023/07/11 15:46:40;;;;;;;5.30;2.80;;;;;;;-147.65;100.00;57646.63;10308886;28;20059;-79
2023/07/11 15:51:40;;;;;;;4.82;2.30;;;;;;;-147.65;100.00;57646.63;10280698;28;20138;-79
2023/07/11 15:56:42;;;;;;;7.25;3.35;;;;;;;-147.65;100.00;57646.63;10272916;28;20049;-79
2023/07/11 16:01:43;;;;;;;2.97;2.22;;;;;;;-147.65;100.00;57646.63;10281973;28;20061;-80
2023/07/11 16:06:45;;;;;;;5.45;2.22;;;;;;;-147.65;100.00;57646.63;10359899;28;20040;-80
2023/07/11 16:11:45;;;;;;;6.53;3.55;;;;;;;-147.65;100.00;57646.63;10306695;28;20415;-80
2023/07/11 16:16:47;;;;;;;10.17;2.93;;;;;;;-147.65;100.00;57646.63;10328595;28;20052;-80
2023/07/11 16:21:47;;;;;;;9.27;3.05;;;;;;;-147.65;100.00;57646.63;10308794;28;20406;-80
2023/07/11 16:26:48;;;;;;;5.80;2.53;;;;;;;-147.65;100.00;57646.63;10298240;28;20034;-80
2023/07/11 16:31:49;;;;;;;7.53;2.70;;;;;;;-147.65;100.00;57646.63;10331131;28;20035;-80
2023/07/11 16:36:51;;;;;;;7.00;2.77;;;;;;;-147.65;100.00;57646.63;10317678;28;20045;-80
2023/07/11 16:41:52;;;;;;;6.63;3.30;;;;;;;-147.65;100.00;57646.63;10332088;28;20506;-80
2023/07/11 16:46:55;;;;;;;7.55;3.22;;;;;;;-147.65;100.00;57646.63;10335588;28;20046;-80
2023/07/11 16:51:55;;;;;;;6.65;3.08;;;;;;;-147.65;100.00;57646.63;10322649;28;20120;-80
2023/07/11 16:56:56;;;;;;;7.33;3.20;;;;;;;-147.65;100.00;57646.63;10319190;28;20104;-79
2023/07/11 17:01:56;;;;;;;6.77;3.10;;;;;;;-147.65;100.00;57646.63;10302277;28;20433;-80
2023/07/11 17:06:57;;;;;;;7.83;3.13;;;;;;;-147.65;100.00;57646.63;10321160;28;20478;-79
2023/07/11 17:11:57;;;;;;;11.37;2.93;;;;;;;-147.65;100.00;57646.63;10324024;28;20081;-81
2023/07/11 17:16:58;;;;;;;7.73;2.93;;;;;;;-147.65;100.00;57646.63;10327265;28;20137;-81
2023/07/11 17:22:01;;;;;;;8.57;3.20;;;;;;;-147.65;100.00;57646.63;10323362;28;20143;-80
2023/07/11 17:27:03;;;;;;;6.72;2.53;;;;;;;-147.65;100.00;57646.63;10332488;28;20042;-81
2023/07/11 17:32:09;;;;;;;7.65;2.33;;;;;;;-147.65;100.00;57646.63;10314288;28;20035;-80
2023/07/11 17:37:30;;;;;;;4.97;3.10;;;;;;;-147.65;100.00;57646.63;10317154;28;20068;-81
2023/07/11 17:42:30;;;;;;;10.70;2.83;;;;;;;-147.65;100.00;57646.63;10345267;28;20042;-81
2023/07/11 17:47:31;;;;;;;3.70;2.70;;;;;;;-147.65;100.00;57646.63;10337127;28;20046;-80
2023/07/11 17:52:31;;;;;;;5.33;3.00;;;;;;;-147.65;100.00;57646.63;10343124;28;20050;-80
2023/07/11 17:57:32;;;;;;;4.13;2.00;;;;;;;-147.65;100.00;57646.63;10323426;28;20038;-81
2023/07/11 18:02:33;;;;;;;4.45;2.95;;;;;;;-147.65;100.00;57646.63;10346869;28;20042;-82
2023/07/11 18:07:35;;;;;;;6.53;2.73;;;;;;;-147.65;100.00;57646.63;10362916;28;20095;-82
2023/07/11 18:12:35;;;;;;;6.10;2.25;;;;;;;-147.65;100.00;57646.63;10339487;28;20038;-82
2023/07/11 18:17:36;;;;;;;6.80;2.53;;;;;;;-147.65;100.00;57646.63;10364880;28;20466;-81
2023/07/11 18:22:36;;;;;;;4.83;2.17;;;;;;;-147.65;100.00;57646.63;10353244;28;20034;-82
2023/07/11 18:27:37;;;;;;;5.73;2.80;;;;;;;-147.65;100.00;57646.63;10363697;28;20050;-82
2023/07/11 18:32:39;;;;;;;6.47;3.00;;;;;;;-147.65;100.00;57646.63;10328253;28;20037;-82
2023/07/11 18:37:40;;;;;;;4.28;2.50;;;;;;;-147.65;100.00;57646.63;10359950;28;20129;-82
2023/07/11 18:42:40;;;;;;;4.57;2.50;;;;;;;-147.65;100.00;57646.63;10331922;28;20051;-82
2023/07/11 18:47:41;;;;;;;7.50;3.77;;;;;;;-147.65;100.00;57646.63;10334743;28;20078;-83
2023/07/11 18:52:42;;;;;;;6.80;4.23;;;;;;;-147.65;100.00;57646.63;10303035;28;20062;-83
2023/07/11 18:57:44;;;;;;;12.37;4.43;;;;;;;-147.65;100.00;57646.63;10336066;28;20097;-82
2023/07/11 19:02:52;;;;;;;6.95;2.63;;;;;;;-147.65;100.00;57646.63;10309582;28;20081;-82
2023/07/11 19:07:53;;;;;;;10.60;3.53;;;;;;;-147.65;100.00;57646.63;10318843;28;20125;-83
2023/07/11 19:12:54;;;;;;;6.37;3.83;;;;;;;-147.65;100.00;57646.63;10325733;28;20121;-82
2023/07/11 19:18:00;;;;;;;6.23;3.43;;;;;;;-147.65;100.00;57646.63;10321027;28;20050;-83
2023/07/11 19:23:02;;;;;;;9.43;3.67;;;;;;;-147.65;100.00;57646.63;10337595;28;20479;-82
2023/07/11 19:28:13;;;;;;;;;;;;;;;-147.65;100.00;57646.63;10322017;28;20038;-83
2023/07/11 19:33:15;;;;;;;7.10;3.40;;;;;;;-147.65;100.00;57646.63;10319221;28;19930;-87
2023/07/11 19:38:18;;;;;;;7.40;4.10;;;;;;;-147.65;100.00;57646.63;10306572;28;20070;-83
2023/07/11 19:43:18;;;;;;;7.97;4.07;;;;;;;-147.65;100.00;57646.63;10348112;28;20417;-83
2023/07/11 19:48:20;;;;;;;8.00;4.50;;;;;;;-147.65;100.00;57646.63;10339956;28;20046;-83
2023/07/11 19:53:22;;;;;;;6.43;3.65;;;;;;;-147.65;100.00;57646.63;10317419;28;20388;-83
2023/07/11 19:58:30;;;;;;;8.98;4.60;;;;;;;-147.65;100.00;57646.63;10337055;28;20060;-82
2023/07/11 20:03:31;;;;;;;12.15;4.63;;;;;;;-147.65;100.00;57646.63;10323588;28;20058;-83
2023/07/11 20:08:32;;;;;;;6.23;4.23;;;;;;;-147.65;100.00;57646.63;10323977;28;20446;-83
2023/07/11 20:13:32;;;;;;;21.50;4.67;;;;;;;-147.65;100.00;57646.63;10319834;28;20038;-83
2023/07/11 20:18:33;;;;;;;7.60;5.00;;;;;;;-147.65;100.00;57646.63;10335799;28;20493;-83
2023/07/11 20:23:35;;;;;;;11.73;6.27;;;;;;;-147.65;100.00;57646.63;10324917;28;20069;-82
2023/07/11 20:28:35;;;;;;;8.75;5.30;;;;;;;-147.65;100.00;57646.63;10334432;28;20712;-84
2023/07/11 20:33:36;;;;;;;7.63;4.30;;;;;;;-147.65;100.00;57646.63;10322159;28;20038;-82
2023/07/11 20:38:36;;;;;;;8.97;4.37;;;;;;;-147.65;100.00;57646.63;10344523;28;20042;-83
2023/07/11 20:43:37;;;;;;;13.57;3.93;;;;;;;-147.65;100.00;57646.63;10324334;28;20051;-81
2023/07/11 20:48:38;;;;;;;6.00;3.47;;;;;;;-147.65;100.00;57646.63;10325567;28;20050;-79
2023/07/11 20:53:39;;;;;;;5.25;2.60;;;;;;;-147.65;100.00;57646.63;10342847;28;20075;-79
2023/07/11 20:58:39;;;;;;;6.83;3.20;;;;;;;-147.65;100.00;57646.63;10338448;28;20565;-79
2023/07/11 21:03:40;;;;;;;14.60;2.83;;;;;;;-147.65;100.00;57646.63;10338890;28;20274;-79
2023/07/11 21:08:41;;;;;;;12.13;4.53;;;;;;;-147.65;100.00;57646.63;10326254;28;20128;-79
2023/07/11 21:13:41;;;;;;;4.30;2.13;;;;;;;-147.65;100.00;57646.63;10342282;28;20129;-79
2023/07/11 21:18:42;;;;;;;5.27;2.10;;;;;;;-147.65;100.00;57646.63;10332936;28;20398;-78
2023/07/11 21:23:43;;;;;;;4.60;2.00;;;;;;;-147.65;100.00;57646.63;10339410;28;20145;-80
2023/07/11 21:28:43;;;;;;;6.43;2.40;;;;;;;-147.65;100.00;57646.63;10339310;28;20043;-80
2023/07/11 21:33:44;;;;;;;6.63;1.80;;;;;;;-147.65;100.00;57646.63;10326354;28;20042;-80
2023/07/11 21:38:45;;;;;;;4.63;2.67;;;;;;;-147.65;100.00;57646.63;10346244;28;20046;-80
2023/07/11 21:43:46;;;;;;;9.07;3.47;;;;;;;-147.65;100.00;57646.63;10325899;28;20041;-81
2023/07/11 21:48:46;;;;;;;8.00;2.38;;;;;;;-147.65;100.00;57646.63;10335592;28;20065;-80
2023/07/11 21:53:47;;;;;;;6.22;3.88;;;;;;;-147.65;100.00;57646.63;10344039;28;20043;-83
2023/07/11 21:58:48;;;;;;;7.53;3.08;;;;;;;-147.65;100.00;57646.63;10353182;28;20096;-83
2023/07/11 22:03:48;;;;;;;2.90;1.80;;;;;;;-147.65;100.00;57646.63;10335578;28;20042;-83
2023/07/11 22:08:50;;;;;;;3.63;1.63;;;;;;;-147.65;100.00;57646.63;10324982;28;20121;-83
2023/07/11 22:13:50;;;;;;;9.13;2.03;;;;;;;-147.65;100.00;57646.63;10313502;28;20565;-83
2023/07/11 22:18:52;;;;;;;4.15;1.65;;;;;;;-147.65;100.00;57646.63;10325279;28;20336;-80
2023/07/11 22:23:52;;;;;;;2.03;1.23;;;;;;;-147.65;100.00;57646.63;10313122;28;20034;-82
2023/07/11 22:28:53;;;;;;;1.90;1.17;;;;;;;-147.65;100.00;57646.63;10306713;28;20030;-81
2023/07/11 22:33:54;;;;;;;1.95;1.00;;;;;;;-147.65;100.00;57646.63;10338441;28;20108;-81
2023/07/11 22:38:54;;;;;;;4.15;1.70;;;;;;;-147.65;100.00;57646.63;10324521;28;20080;-80
2023/07/11 22:43:55;;;;;;;3.50;1.20;;;;;;;-147.65;100.00;57646.63;10323795;28;20054;-82